Time;durP1;ratioP1;P1;durP2;ratioP2;P2;SDS_P1;SDS_P2;PMS_P1;PMS_P2;Temp;Humidity;BMP_temperature;BMP_pressure;BME280_temperature;BME280_humidity;BME280_pressure;Samples;Min_cycle;Max_cycle;Signal;HPM_P1;HPM_P2
2023/05/27 00:02:16;;;;;;;21.13;12.60;;;;;;;15.14;100.00;95251.22;5032567;28;20218;-79
2023/05/27 00:04:42;;;;;;;22.87;12.67;;;;;;;15.20;100.00;95253.78;5032607;28;20248;-81
2023/05/27 00:07:07;;;;;;;25.07;12.93;;;;;;;15.23;100.00;95245.44;5014297;28;20226;-80
2023/05/27 00:09:33;;;;;;;22.53;12.87;;;;;;;15.31;100.00;95247.75;5012674;28;20252;-80
2023/05/27 00:11:58;;;;;;;20.13;12.33;;;;;;;15.38;100.00;95240.56;5030489;28;20722;-80
2023/05/27 00:14:24;;;;;;;21.57;12.20;;;;;;;15.39;100.00;95238.75;5016713;28;20221;-81
2023/05/27 00:16:51;;;;;;;18.13;11.50;;;;;;;15.40;100.00;95243.78;5033444;28;20238;-78
2023/05/27 00:19:19;;;;;;;21.67;10.93;;;;;;;15.36;100.00;95239.19;5032845;28;20291;-79
2023/05/27 00:21:44;;;;;;;21.00;11.20;;;;;;;15.37;100.00;95243.44;5011795;28;20231;-80
2023/05/27 00:24:10;;;;;;;16.03;9.80;;;;;;;15.42;100.00;95240.94;4986781;28;20226;-79
2023/05/27 00:26:36;;;;;;;14.47;9.10;;;;;;;15.43;100.00;95242.53;4991027;28;20237;-80
2023/05/27 00:29:01;;;;;;;19.17;8.50;;;;;;;15.52;100.00;95233.38;5031465;28;20225;-80
2023/05/27 00:31:27;;;;;;;12.60;7.63;;;;;;;15.45;100.00;95230.00;5040205;28;20235;-80
2023/05/27 00:33:52;;;;;;;11.50;7.00;;;;;;;15.40;100.00;95227.97;5016854;28;20234;-79
2023/05/27 00:36:18;;;;;;;9.37;6.57;;;;;;;15.39;100.00;95233.47;5001681;28;20231;-79
2023/05/27 00:38:43;;;;;;;10.50;6.67;;;;;;;15.36;100.00;95231.28;5010278;28;20218;-80
2023/05/27 00:41:10;;;;;;;11.30;6.07;;;;;;;15.40;100.00;95227.97;5024613;28;20231;-81
2023/05/27 00:43:36;;;;;;;8.03;5.67;;;;;;;15.35;100.00;95227.03;4996690;28;20677;-81
2023/05/27 00:46:01;;;;;;;7.90;5.60;;;;;;;15.27;100.00;95220.22;5028885;28;20912;-79
2023/05/27 00:48:27;;;;;;;8.43;5.53;;;;;;;15.26;100.00;95210.69;5017170;28;20227;-80
2023/05/27 00:50:52;;;;;;;8.50;5.60;;;;;;;15.16;100.00;95210.44;5005315;28;20320;-79
2023/05/27 00:53:18;;;;;;;9.80;6.40;;;;;;;15.18;100.00;95202.28;5011909;28;20234;-79
2023/05/27 00:55:43;;;;;;;9.47;5.93;;;;;;;15.19;100.00;95199.41;4999878;28;20326;-80
2023/05/27 00:58:09;;;;;;;10.40;6.23;;;;;;;15.20;100.00;95201.03;5001813;28;20223;-81
2023/05/27 01:00:37;;;;;;;7.93;5.80;;;;;;;15.26;100.00;95200.13;5013282;28;20246;-79
2023/05/27 01:03:03;;;;;;;7.50;5.60;;;;;;;15.21;100.00;95201.84;5007209;28;20678;-81
2023/05/27 01:05:29;;;;;;;10.70;5.47;;;;;;;15.26;100.00;95191.44;4996329;28;20226;-80
2023/05/27 01:08:07;;;;;;;7.47;5.13;;;;;;;15.14;100.00;95201.13;5001607;28;20242;-81
2023/05/27 01:11:02;;;;;;;9.27;5.40;;;;;;;15.05;100.00;95186.59;5001699;28;20272;-80
2023/05/27 01:13:40;;;;;;;7.43;5.57;;;;;;;15.10;100.00;95184.94;5016961;28;20261;-80
2023/05/27 01:16:15;;;;;;;7.10;5.47;;;;;;;14.89;100.00;95174.84;5030864;28;21171;-81
2023/05/27 01:18:44;;;;;;;8.10;4.97;;;;;;;14.77;100.00;95168.69;5013122;28;20977;-80
2023/05/27 01:21:14;;;;;;;9.07;5.37;;;;;;;14.68;100.00;95159.44;5006661;28;20226;-81
2023/05/27 01:23:41;;;;;;;6.37;4.87;;;;;;;14.72;100.00;95161.44;4983047;28;20239;-79
2023/05/27 01:26:07;;;;;;;6.87;4.90;;;;;;;14.74;100.00;95156.75;5018216;28;20283;-82
2023/05/27 01:28:32;;;;;;;7.33;5.00;;;;;;;14.70;100.00;95154.75;4981960;28;20229;-81
2023/05/27 01:31:21;;;;;;;5.93;4.37;;;;;;;14.71;100.00;95159.81;4998944;28;20607;-82
2023/05/27 01:34:08;;;;;;;5.37;4.40;;;;;;;14.59;100.00;95145.75;5032778;28;20317;-82
2023/05/27 01:36:47;;;;;;;5.50;4.40;;;;;;;14.43;100.00;95146.31;5024153;28;20229;-84
2023/05/27 01:39:12;;;;;;;8.50;4.30;;;;;;;14.55;100.00;95141.94;5027322;28;20251;-81
2023/05/27 01:41:39;;;;;;;5.37;4.10;;;;;;;14.55;100.00;95136.69;5016499;28;20238;-83
2023/05/27 01:44:05;;;;;;;8.00;4.20;;;;;;;14.52;100.00;95139.75;5033854;28;20237;-83
2023/05/27 01:46:30;;;;;;;6.20;3.97;;;;;;;14.63;100.00;95136.41;5031065;28;20234;-82
2023/05/27 01:48:55;;;;;;;5.13;4.00;;;;;;;14.75;100.00;95147.00;5025293;28;20230;-82
2023/05/27 01:51:21;;;;;;;5.17;3.70;;;;;;;14.76;100.00;95136.25;5033786;28;20976;-82
2023/05/27 01:53:46;;;;;;;6.90;4.20;;;;;;;14.71;100.00;95141.38;5031489;28;20260;-80
2023/05/27 01:56:12;;;;;;;6.13;3.97;;;;;;;14.56;100.00;95148.03;5022336;28;20246;-82
2023/05/27 01:58:37;;;;;;;6.40;4.10;;;;;;;14.36;100.00;95145.56;5029869;28;20229;-83
2023/05/27 02:01:03;;;;;;;6.53;4.20;;;;;;;14.19;100.00;95144.47;5016444;28;20939;-81
2023/05/27 02:03:28;;;;;;;6.17;4.53;;;;;;;14.16;100.00;95143.09;5024638;28;20622;-82
2023/05/27 02:05:54;;;;;;;7.10;4.50;;;;;;;14.26;100.00;95152.34;5020706;28;20233;-82
2023/05/27 02:08:19;;;;;;;7.80;4.57;;;;;;;14.21;100.00;95147.69;5032342;28;20218;-80
2023/05/27 02:10:45;;;;;;;6.80;4.57;;;;;;;14.44;100.00;95142.69;5017792;28;20217;-81
2023/05/27 02:13:10;;;;;;;8.13;4.80;;;;;;;14.56;100.00;95143.56;5031036;28;20221;-82
2023/05/27 02:15:36;;;;;;;8.20;5.00;;;;;;;14.48;100.00;95149.09;5033916;28;20237;-81
2023/05/27 02:18:01;;;;;;;7.33;5.00;;;;;;;14.41;100.00;95148.38;5033003;28;20684;-82
2023/05/27 02:20:27;;;;;;;7.27;4.70;;;;;;;14.48;100.00;95143.84;5017977;28;20234;-82
2023/05/27 02:22:52;;;;;;;7.60;5.00;;;;;;;14.59;100.00;95140.47;5024666;28;20232;-81
2023/05/27 02:25:18;;;;;;;8.13;5.43;;;;;;;14.49;100.00;95152.56;5041943;28;20233;-82
2023/05/27 02:27:47;;;;;;;8.83;5.47;;;;;;;14.45;100.00;95146.13;5031608;28;20226;-81
2023/05/27 02:30:13;;;;;;;8.03;5.90;;;;;;;14.54;100.00;95143.00;5034275;28;20299;-82
2023/05/27 02:32:38;;;;;;;9.97;6.47;;;;;;;14.58;100.00;95149.41;5021774;28;20228;-82
2023/05/27 02:35:04;;;;;;;9.63;6.40;;;;;;;14.55;100.00;95154.31;5013303;28;20230;-81
2023/05/27 02:37:30;;;;;;;9.10;6.20;;;;;;;14.61;100.00;95149.00;5027701;28;20232;-83
2023/05/27 02:39:56;;;;;;;10.87;6.80;;;;;;;14.57;100.00;95145.16;5009850;28;20260;-83
2023/05/27 02:42:21;;;;;;;11.67;7.07;;;;;;;14.62;100.00;95150.59;5032359;28;20251;-82
2023/05/27 02:44:47;;;;;;;11.93;7.20;;;;;;;14.74;100.00;95155.94;5019366;28;20225;-81
2023/05/27 02:47:12;;;;;;;9.97;7.23;;;;;;;14.70;100.00;95155.56;5018426;28;20257;-81
2023/05/27 02:49:38;;;;;;;12.03;7.87;;;;;;;14.73;100.00;95155.16;5016790;28;20236;-83
2023/05/27 02:52:03;;;;;;;11.87;7.47;;;;;;;14.80;100.00;95158.53;5031920;28;20661;-82
2023/05/27 02:54:29;;;;;;;12.03;8.13;;;;;;;14.92;100.00;95149.88;5018242;28;20721;-81
2023/05/27 02:56:54;;;;;;;12.43;7.67;;;;;;;15.00;100.00;95146.94;5037215;28;20811;-81
2023/05/27 02:59:20;;;;;;;12.23;6.30;;;;;;;14.98;100.00;95149.78;5030097;28;20229;-82
2023/05/27 03:01:45;;;;;;;10.60;6.03;;;;;;;15.02;100.00;95145.66;5028871;28;20988;-81
2023/05/27 03:04:11;;;;;;;11.30;6.00;;;;;;;14.97;100.00;95142.09;5019478;28;20779;-83
2023/05/27 03:06:37;;;;;;;9.97;6.10;;;;;;;14.93;100.00;95140.91;5042857;28;20268;-80
2023/05/27 03:09:03;;;;;;;9.80;6.47;;;;;;;14.88;100.00;95146.06;5040478;28;20226;-82
2023/05/27 03:11:29;;;;;;;11.57;5.97;;;;;;;14.87;100.00;95139.19;5010122;28;20241;-82
2023/05/27 03:13:54;;;;;;;12.20;5.90;;;;;;;14.85;100.00;95147.31;5020387;28;20227;-82
2023/05/27 03:16:20;;;;;;;8.23;5.57;;;;;;;14.85;100.00;95145.47;5027452;28;20246;-81
2023/05/27 03:18:45;;;;;;;8.30;5.07;;;;;;;14.96;100.00;95151.03;5008397;28;20237;-82
2023/05/27 03:21:11;;;;;;;7.03;5.30;;;;;;;14.97;100.00;95157.91;5018356;28;20310;-81
2023/05/27 03:23:37;;;;;;;7.77;5.70;;;;;;;14.73;100.00;95155.16;5018042;28;20336;-81
2023/05/27 03:26:03;;;;;;;8.90;5.37;;;;;;;14.64;100.00;95159.06;5013257;28;20280;-80
2023/05/27 03:28:28;;;;;;;9.67;5.70;;;;;;;14.68;100.00;95151.56;5020945;28;20753;-82
2023/05/27 03:30:55;;;;;;;8.63;5.50;;;;;;;14.74;100.00;95155.94;5025288;28;20283;-81
2023/05/27 03:33:24;;;;;;;10.43;7.43;;;;;;;14.89;100.00;95158.19;5012033;28;20230;-82
2023/05/27 03:35:50;;;;;;;12.77;8.87;;;;;;;14.90;100.00;95158.00;5014704;28;20733;-82
2023/05/27 03:38:15;;;;;;;13.00;9.00;;;;;;;15.00;100.00;95162.75;5042067;28;20317;-81
2023/05/27 03:40:41;;;;;;;15.03;9.83;;;;;;;14.81;100.00;95168.00;5022760;28;20229;-80
2023/05/27 03:43:06;;;;;;;15.77;10.10;;;;;;;14.58;100.00;95165.22;5029407;28;20249;-83
2023/05/27 03:45:32;;;;;;;15.57;10.07;;;;;;;14.75;100.00;95165.47;5011486;28;20222;-83
2023/05/27 03:47:57;;;;;;;15.13;10.37;;;;;;;14.92;100.00;95176.22;4998378;28;20222;-81
2023/05/27 03:50:23;;;;;;;13.87;9.80;;;;;;;14.91;100.00;95170.13;5014975;28;20238;-81
2023/05/27 03:52:48;;;;;;;16.63;10.13;;;;;;;15.01;100.00;95164.34;5015378;28;20681;-82
2023/05/27 03:55:14;;;;;;;16.83;10.43;;;;;;;15.02;100.00;95166.75;5017083;28;20237;-80
2023/05/27 03:57:39;;;;;;;13.63;9.57;;;;;;;15.09;100.00;95162.25;5012498;28;20226;-81
2023/05/27 04:00:08;;;;;;;16.00;9.90;;;;;;;15.17;100.00;95167.19;5000241;28;20674;-80
2023/05/27 04:02:33;;;;;;;14.87;9.73;;;;;;;15.20;100.00;95171.22;5013956;28;20234;-80
2023/05/27 04:05:00;;;;;;;13.63;9.77;;;;;;;15.24;100.00;95173.19;5037621;28;20230;-81
2023/05/27 04:07:26;;;;;;;18.93;9.80;;;;;;;15.26;100.00;95163.22;5035062;28;20230;-81
2023/05/27 04:09:52;;;;;;;14.10;9.80;;;;;;;15.19;100.00;95165.13;5011351;28;20230;-82
2023/05/27 04:12:18;;;;;;;15.33;10.03;;;;;;;15.15;100.00;95169.25;5002988;28;20228;-81
2023/05/27 04:14:43;;;;;;;14.97;10.10;;;;;;;15.26;100.00;95167.72;5034626;28;20262;-80
2023/05/27 04:17:09;;;;;;;13.87;9.30;;;;;;;15.15;100.00;95166.63;5011124;28;20262;-80
2023/05/27 04:19:35;;;;;;;17.93;10.20;;;;;;;15.07;100.00;95161.63;5015528;28;20692;-80
2023/05/27 04:22:00;;;;;;;14.27;10.07;;;;;;;15.08;100.00;95162.44;5013797;28;20748;-78
2023/05/27 04:24:26;;;;;;;17.30;10.27;;;;;;;15.16;100.00;95175.34;4983034;28;20313;-81
2023/05/27 04:26:51;;;;;;;15.93;10.07;;;;;;;15.23;100.00;95165.50;5015776;28;20847;-80
2023/05/27 04:29:17;;;;;;;16.93;10.20;;;;;;;15.34;100.00;95170.84;5000138;28;20628;-80
2023/05/27 04:31:42;;;;;;;14.00;10.20;;;;;;;15.41;100.00;95171.56;4999283;28;20957;-79
2023/05/27 04:34:08;;;;;;;14.67;9.90;;;;;;;15.50;100.00;95174.72;5013610;28;20230;-79
2023/05/27 04:36:34;;;;;;;15.00;9.90;;;;;;;15.55;100.00;95179.34;5011131;28;20265;-79
2023/05/27 04:39:01;;;;;;;18.40;10.47;;;;;;;15.55;100.00;95176.72;5008270;28;20296;-78
2023/05/27 04:41:28;;;;;;;17.83;10.47;;;;;;;15.50;100.00;95178.16;4996862;28;20242;-78
2023/05/27 04:43:56;;;;;;;18.47;10.33;;;;;;;15.54;100.00;95180.38;5010684;28;20230;-79
2023/05/27 04:46:24;;;;;;;13.20;9.33;;;;;;;15.57;100.00;95175.44;5002226;28;20226;-78
2023/05/27 04:48:52;;;;;;;15.27;10.00;;;;;;;15.54;100.00;95180.38;5017642;28;20695;-79
2023/05/27 04:51:17;;;;;;;17.47;9.93;;;;;;;15.45;100.00;95177.25;5001550;28;20230;-78
2023/05/27 04:53:43;;;;;;;13.77;9.63;;;;;;;15.55;100.00;95182.75;4998636;28;20218;-79
2023/05/27 04:56:09;;;;;;;13.53;9.27;;;;;;;15.62;100.00;95177.41;4998794;28;20238;-79
2023/05/27 04:58:35;;;;;;;14.70;9.10;;;;;;;15.68;100.00;95182.59;5013594;28;20230;-79
2023/05/27 05:01:01;;;;;;;14.67;9.17;;;;;;;15.79;100.00;95181.81;4996507;28;20351;-78
2023/05/27 05:03:36;;;;;;;12.93;8.30;;;;;;;15.85;100.00;95180.94;5009044;28;20219;-78
2023/05/27 05:06:02;;;;;;;13.77;8.63;;;;;;;15.88;100.00;95180.47;4998115;28;20233;-78
2023/05/27 05:08:28;;;;;;;11.57;8.00;;;;;;;15.86;100.00;95179.88;4996115;28;20242;-78
2023/05/27 05:10:53;;;;;;;11.63;8.30;;;;;;;15.90;100.00;95182.91;5011203;28;20250;-78
2023/05/27 05:13:19;;;;;;;11.63;7.07;;;;;;;15.87;100.00;95181.50;5015017;28;20229;-77
2023/05/27 05:15:44;;;;;;;11.07;7.07;;;;;;;15.90;100.00;95180.25;5036641;28;20666;-78
2023/05/27 05:18:11;;;;;;;10.97;7.17;;;;;;;15.93;100.00;95185.88;5004708;28;20234;-78
2023/05/27 05:20:36;;;;;;;12.73;7.30;;;;;;;15.91;100.00;95187.94;5037872;28;20269;-78
2023/05/27 05:23:02;;;;;;;13.13;7.90;;;;;;;15.88;100.00;95198.94;5026723;28;20226;-77
2023/05/27 05:25:29;;;;;;;10.17;6.83;;;;;;;15.92;100.00;95188.75;5010993;28;20829;-79
2023/05/27 05:27:55;;;;;;;11.80;7.23;;;;;;;15.98;100.00;95193.13;5032355;28;20287;-80
2023/05/27 05:30:20;;;;;;;11.83;6.40;;;;;;;15.99;100.00;95202.66;5028610;28;20229;-78
2023/05/27 05:32:46;;;;;;;9.57;6.23;;;;;;;15.93;100.00;95199.06;5026347;28;20236;-80
2023/05/27 05:35:11;;;;;;;12.50;6.57;;;;;;;15.95;100.00;95193.59;5010001;28;20230;-78
2023/05/27 05:37:36;;;;;;;11.40;6.70;;;;;;;16.01;100.00;95196.13;5023211;28;20246;-79
2023/05/27 05:40:02;;;;;;;10.23;6.60;;;;;;;16.11;100.00;95198.22;5035306;28;20295;-79
2023/05/27 05:42:28;;;;;;;11.97;6.10;;;;;;;16.14;100.00;95195.91;5037247;28;20878;-78
2023/05/27 05:44:53;;;;;;;9.43;6.50;;;;;;;16.16;100.00;95207.06;5021286;28;20225;-78
2023/05/27 05:47:19;;;;;;;12.17;6.83;;;;;;;16.21;100.00;95205.59;5018063;28;20241;-78
2023/05/27 05:49:44;;;;;;;12.47;6.90;;;;;;;16.22;100.00;95201.88;5018725;28;20606;-78
2023/05/27 05:52:10;;;;;;;11.00;6.83;;;;;;;16.15;100.00;95205.44;5016795;28;20225;-78
2023/05/27 05:54:35;;;;;;;11.70;7.10;;;;;;;16.15;100.00;95205.44;5030878;28;20256;-79
2023/05/27 05:57:02;;;;;;;11.23;7.17;;;;;;;16.19;100.00;95209.25;5019633;28;20225;-80
2023/05/27 05:59:28;;;;;;;10.77;7.03;;;;;;;16.18;100.00;95205.00;5025553;28;20802;-80
2023/05/27 06:01:53;;;;;;;12.80;7.40;;;;;;;16.25;100.00;95215.47;5020526;28;20218;-80
2023/05/27 06:04:19;;;;;;;12.93;7.40;;;;;;;16.28;100.00;95214.22;5033457;28;20233;-80
2023/05/27 06:06:44;;;;;;;14.40;7.63;;;;;;;16.28;100.00;95216.84;5020255;28;20226;-80
2023/05/27 06:09:10;;;;;;;12.40;7.63;;;;;;;16.38;100.00;95215.28;5029419;28;20229;-79
2023/05/27 06:11:35;;;;;;;15.10;8.20;;;;;;;16.32;100.00;95215.34;5015712;28;20238;-79
2023/05/27 06:14:00;;;;;;;14.00;8.10;;;;;;;16.37;100.00;95218.94;5026093;28;20217;-79
2023/05/27 06:16:26;;;;;;;15.40;8.07;;;;;;;16.36;100.00;95216.53;5024112;28;20233;-79
2023/05/27 06:18:52;;;;;;;14.70;8.10;;;;;;;16.42;100.00;95208.50;5032215;28;20700;-80
2023/05/27 06:21:17;;;;;;;12.43;8.13;;;;;;;16.47;100.00;95226.28;5030452;28;20225;-80
2023/05/27 06:23:43;;;;;;;14.93;8.30;;;;;;;16.47;100.00;95218.38;5030347;28;20233;-77
2023/05/27 06:26:08;;;;;;;15.50;7.90;;;;;;;16.46;100.00;95220.19;5028373;28;20222;-79
2023/05/27 06:28:34;;;;;;;14.50;7.83;;;;;;;16.46;100.00;95222.84;5033429;28;20247;-80
2023/05/27 06:30:59;;;;;;;14.23;8.17;;;;;;;16.50;100.00;95228.50;5032339;28;20693;-80
2023/05/27 06:33:25;;;;;;;14.20;7.77;;;;;;;16.56;100.00;95230.25;5030392;28;20222;-80
2023/05/27 06:35:50;;;;;;;11.70;7.93;;;;;;;16.45;100.00;95231.81;5031495;28;20233;-80
2023/05/27 06:38:16;;;;;;;12.30;8.10;;;;;;;16.54;100.00;95229.66;5025163;28;20284;-80
2023/05/27 06:40:41;;;;;;;12.17;8.20;;;;;;;16.56;100.00;95232.88;5031459;28;20298;-80
2023/05/27 06:43:06;;;;;;;12.63;8.10;;;;;;;16.56;100.00;95230.25;5016912;28;20236;-80
2023/05/27 06:45:32;;;;;;;15.37;7.90;;;;;;;16.61;100.00;95233.00;5030948;28;20234;-80
2023/05/27 06:47:58;;;;;;;13.47;8.23;;;;;;;16.63;100.00;95238.84;5000180;28;20226;-80
2023/05/27 06:50:23;;;;;;;13.07;7.97;;;;;;;16.65;100.00;95236.78;5009947;28;20272;-80
2023/05/27 06:52:49;;;;;;;12.70;7.90;;;;;;;16.77;100.00;95234.97;5015989;28;20229;-80
2023/05/27 06:55:14;;;;;;;14.07;8.20;;;;;;;16.80;100.00;95245.09;5016027;28;20233;-80
2023/05/27 06:57:39;;;;;;;12.93;8.50;;;;;;;16.83;100.00;95240.16;5029287;28;20295;-79
2023/05/27 07:00:06;;;;;;;12.80;7.90;;;;;;;16.88;100.00;95243.94;5035198;28;20233;-77
2023/05/27 07:02:31;;;;;;;13.27;8.17;;;;;;;16.92;100.00;95237.16;5028082;28;20791;-79
2023/05/27 07:04:57;;;;;;;14.77;8.10;;;;;;;16.89;100.00;95242.88;5018431;28;20264;-80
2023/05/27 07:07:25;;;;;;;15.37;8.40;;;;;;;16.98;100.00;95241.53;5030426;28;20222;-79
2023/05/27 07:09:51;;;;;;;16.90;8.50;;;;;;;17.09;100.00;95246.81;5003303;28;20392;-79
2023/05/27 07:12:17;;;;;;;15.07;8.13;;;;;;;17.04;100.00;95241.41;5032117;28;20705;-80
2023/05/27 07:14:42;;;;;;;12.40;8.07;;;;;;;16.96;100.00;95249.66;5017650;28;20947;-80
2023/05/27 07:17:08;;;;;;;13.17;7.93;;;;;;;17.06;100.00;95236.69;5030010;28;20360;-79
2023/05/27 07:19:33;;;;;;;13.53;7.90;;;;;;;17.06;100.00;95241.16;5019186;28;20233;-79
2023/05/27 07:21:59;;;;;;;12.63;8.60;;;;;;;17.05;100.00;95252.78;5015440;28;20230;-80
2023/05/27 07:24:24;;;;;;;15.50;8.70;;;;;;;17.06;100.00;95243.81;5031210;28;20245;-80
2023/05/27 07:26:50;;;;;;;13.30;8.07;;;;;;;17.07;100.00;95240.94;5033999;28;20291;-80
2023/05/27 07:29:15;;;;;;;14.67;8.73;;;;;;;17.10;100.00;95243.09;5016832;28;20222;-80
2023/05/27 07:31:41;;;;;;;16.27;8.70;;;;;;;17.17;100.00;95245.66;5030442;28;20240;-79
2023/05/27 07:34:06;;;;;;;13.47;8.80;;;;;;;17.17;100.00;95249.06;5026390;28;20674;-79
2023/05/27 07:36:32;;;;;;;17.47;9.10;;;;;;;17.27;100.00;95249.28;5013700;28;20749;-78
2023/05/27 07:38:57;;;;;;;17.77;9.60;;;;;;;17.22;100.00;95246.53;5019082;28;20233;-79
2023/05/27 07:41:24;;;;;;;14.13;9.70;;;;;;;17.22;100.00;95251.06;5046383;28;20222;-80
2023/05/27 07:43:49;;;;;;;15.47;9.17;;;;;;;17.29;100.00;95246.44;5052743;28;20305;-78
2023/05/27 07:46:15;;;;;;;15.47;9.07;;;;;;;17.35;100.00;95243.66;5032991;28;20370;-80
2023/05/27 07:48:40;;;;;;;18.00;9.30;;;;;;;17.32;100.00;95252.06;5043028;28;20232;-79
2023/05/27 07:51:06;;;;;;;15.93;9.00;;;;;;;17.41;100.00;95253.28;5018092;28;20816;-79
2023/05/27 07:53:31;;;;;;;15.30;8.87;;;;;;;17.49;99.40;95255.59;5008497;28;20702;-79
2023/05/27 07:55:56;;;;;;;13.27;8.47;;;;;;;17.45;100.00;95251.00;5041023;28;20239;-84
2023/05/27 07:58:22;;;;;;;16.40;9.43;;;;;;;17.40;99.87;95251.72;5019427;28;20288;-82
2023/05/27 08:00:48;;;;;;;19.23;9.73;;;;;;;17.34;98.48;95255.28;5027109;28;20226;-82
2023/05/27 08:03:13;;;;;;;14.90;9.20;;;;;;;17.44;98.91;95252.03;5009420;28;20230;-82
2023/05/27 08:05:42;;;;;;;12.93;8.60;;;;;;;17.44;100.00;95263.44;5033235;28;22028;-83
2023/05/27 08:08:07;;;;;;;14.93;8.60;;;;;;;17.53;100.00;95261.25;5031917;28;20230;-83
2023/05/27 08:10:33;;;;;;;18.03;8.77;;;;;;;17.40;100.00;95258.84;5025412;28;20309;-82
2023/05/27 08:12:58;;;;;;;13.20;8.30;;;;;;;17.53;100.00;95265.75;5024533;28;20238;-82
2023/05/27 08:15:24;;;;;;;13.10;7.87;;;;;;;17.59;100.00;95259.50;5033657;28;20232;-83
2023/05/27 08:17:49;;;;;;;14.20;7.93;;;;;;;17.56;100.00;95265.25;5029720;28;20681;-83
2023/05/27 08:20:15;;;;;;;13.27;8.10;;;;;;;17.58;100.00;95260.56;5029167;28;20241;-81
2023/05/27 08:22:41;;;;;;;13.20;7.30;;;;;;;17.60;98.31;95261.13;5028088;28;20245;-82
2023/05/27 08:25:07;;;;;;;13.27;7.63;;;;;;;17.70;97.42;95258.66;5008562;28;20260;-83
2023/05/27 08:27:51;;;;;;;14.67;7.70;;;;;;;17.72;97.95;95259.25;5011237;28;20226;-83
2023/05/27 08:30:17;;;;;;;17.10;7.50;;;;;;;17.77;96.31;95254.84;5032655;28;20839;-83
2023/05/27 08:32:42;;;;;;;12.77;7.60;;;;;;;17.77;98.29;95262.78;5023631;28;20245;-82
2023/05/27 08:35:08;;;;;;;16.37;8.20;;;;;;;17.58;97.82;95273.81;5040475;28;20349;-80
2023/05/27 08:37:34;;;;;;;11.40;7.90;;;;;;;17.67;96.75;95267.09;5037476;28;20226;-82
2023/05/27 08:39:59;;;;;;;12.80;7.47;;;;;;;17.70;95.66;95263.97;5033707;28;20234;-83
2023/05/27 08:42:25;;;;;;;11.80;8.20;;;;;;;17.69;96.11;95267.66;5011909;28;20233;-81
2023/05/27 08:44:51;;;;;;;13.77;7.40;;;;;;;17.71;96.56;95262.94;5037163;28;20260;-80
2023/05/27 08:47:17;;;;;;;12.73;7.27;;;;;;;17.65;97.67;95255.94;5020893;28;20225;-80
2023/05/27 08:50:09;;;;;;;14.40;7.60;;;;;;;17.68;97.34;95256.25;5018026;28;20667;-81
2023/05/27 08:52:54;;;;;;;14.30;7.70;;;;;;;17.71;96.55;95257.63;5038278;28;20233;-81
2023/05/27 08:55:23;;;;;;;11.83;7.10;;;;;;;17.67;100.00;95256.50;5012501;28;20741;-76
2023/05/27 08:57:55;;;;;;;13.77;7.40;;;;;;;17.28;100.00;95256.22;5029775;28;20251;-77
2023/05/27 09:00:21;;;;;;;17.67;7.27;;;;;;;17.36;100.00;95250.53;5042865;28;20229;-77
2023/05/27 09:02:46;;;;;;;11.13;6.80;;;;;;;17.45;100.00;95258.94;5039885;28;20654;-75
2023/05/27 09:05:13;;;;;;;11.97;6.83;;;;;;;17.52;100.00;95254.34;5046594;28;20239;-75
2023/05/27 09:07:38;;;;;;;13.43;6.80;;;;;;;17.54;99.29;95254.09;5045544;28;20233;-76
2023/05/27 09:10:06;;;;;;;10.67;6.83;;;;;;;17.41;100.00;95252.53;5038616;28;20232;-76
2023/05/27 09:12:31;;;;;;;13.27;6.90;;;;;;;17.59;98.91;95243.63;5047442;28;20220;-76
2023/05/27 09:14:57;;;;;;;13.20;7.33;;;;;;;17.72;97.84;95243.38;5063524;28;20228;-76
2023/05/27 09:17:23;;;;;;;13.90;6.70;;;;;;;17.81;98.37;95241.94;5062696;28;20806;-75
2023/05/27 09:19:50;;;;;;;12.40;6.40;;;;;;;17.77;94.13;95256.72;5063310;28;20281;-76
2023/05/27 09:22:30;;;;;;;9.83;6.07;;;;;;;17.72;96.24;95252.09;5025342;28;20225;-77
2023/05/27 09:24:56;;;;;;;12.50;6.43;;;;;;;17.76;91.51;95247.97;5032096;28;20226;-76
2023/05/27 09:27:25;;;;;;;13.40;7.40;;;;;;;17.78;94.31;95245.88;5010422;28;20253;-77
2023/05/27 09:29:51;;;;;;;11.50;6.13;;;;;;;17.75;93.53;95248.19;5019057;28;20234;-76
2023/05/27 09:32:30;;;;;;;11.73;6.43;;;;;;;17.81;93.32;95237.47;5028586;28;20236;-76
2023/05/27 09:34:56;;;;;;;12.60;7.53;;;;;;;17.82;93.96;95238.25;5033657;28;20275;-76
2023/05/27 09:37:26;;;;;;;7.77;5.67;;;;;;;17.85;89.32;95241.25;5018217;28;20245;-77
2023/05/27 09:39:51;;;;;;;11.93;6.53;;;;;;;17.89;92.41;95241.56;5027652;28;20811;-76
2023/05/27 09:42:18;;;;;;;16.33;7.63;;;;;;;17.95;94.75;95233.50;5022856;28;20229;-75
2023/05/27 09:44:44;;;;;;;13.70;7.80;;;;;;;18.00;93.54;95228.28;5033826;28;20272;-76
2023/05/27 09:47:09;;;;;;;11.73;7.10;;;;;;;18.04;93.40;95233.91;5032788;28;20373;-75
2023/05/27 09:49:36;;;;;;;13.83;7.30;;;;;;;18.07;94.49;95231.59;5009523;28;20321;-76
2023/05/27 09:52:02;;;;;;;11.67;6.67;;;;;;;18.12;90.86;95228.22;4996800;28;20324;-76
2023/05/27 09:54:28;;;;;;;10.90;6.73;;;;;;;18.19;90.12;95231.53;5028580;28;20260;-77
2023/05/27 09:56:53;;;;;;;11.93;6.20;;;;;;;18.31;89.10;95234.91;5036246;28;20252;-75
2023/05/27 09:59:19;;;;;;;10.60;6.20;;;;;;;18.53;90.43;95227.88;5016347;28;20217;-78
2023/05/27 10:01:47;;;;;;;12.93;6.63;;;;;;;18.56;88.40;95230.06;5011898;28;20877;-76
2023/05/27 10:04:15;;;;;;;11.47;6.30;;;;;;;18.68;87.79;95228.13;5010169;28;20238;-76
2023/05/27 10:06:45;;;;;;;10.00;6.00;;;;;;;18.74;86.34;95229.00;5036642;28;20253;-78
2023/05/27 10:09:15;;;;;;;11.00;6.20;;;;;;;18.86;86.07;95234.22;5016317;28;20297;-77
2023/05/27 10:11:41;;;;;;;10.50;6.00;;;;;;;18.96;86.76;95221.94;5035425;28;20221;-77
2023/05/27 10:14:06;;;;;;;11.23;6.07;;;;;;;19.08;84.15;95219.16;5032394;28;20289;-76
2023/05/27 10:16:32;;;;;;;11.33;6.23;;;;;;;19.07;87.11;95220.19;5032300;28;20280;-76
2023/05/27 10:18:58;;;;;;;11.57;6.10;;;;;;;19.17;87.45;95215.03;5007763;28;20621;-76
2023/05/27 10:21:28;;;;;;;10.67;5.63;;;;;;;19.26;87.79;95216.22;5027780;28;20236;-76
2023/05/27 10:23:57;;;;;;;10.67;6.03;;;;;;;19.44;85.16;95221.25;5031526;28;20222;-77
2023/05/27 10:26:32;;;;;;;9.30;6.27;;;;;;;19.49;87.12;95219.47;5019199;28;20238;-76
2023/05/27 10:29:12;;;;;;;13.07;5.80;;;;;;;19.61;84.83;95210.59;5041628;28;20226;-76
2023/05/27 10:31:50;;;;;;;9.23;6.10;;;;;;;19.60;83.66;95209.78;5008583;28;20312;-76
2023/05/27 10:34:16;;;;;;;10.53;5.80;;;;;;;19.78;83.44;95206.78;5017088;28;20234;-77
2023/05/27 10:36:44;;;;;;;9.57;5.83;;;;;;;19.91;84.81;95202.94;5016068;28;20237;-76
2023/05/27 10:39:16;;;;;;;10.63;6.00;;;;;;;19.73;81.64;95198.75;5016037;28;20322;-77
2023/05/27 10:41:51;;;;;;;9.27;5.90;;;;;;;19.93;85.16;95206.16;5030024;28;20358;-77
2023/05/27 10:44:36;;;;;;;13.43;5.93;;;;;;;19.98;85.56;95196.38;5037029;28;20217;-77
2023/05/27 10:47:03;;;;;;;8.00;5.77;;;;;;;19.81;82.29;95195.66;5007217;28;20737;-75
2023/05/27 10:49:35;;;;;;;12.63;6.03;;;;;;;19.66;83.64;95197.34;5029885;28;20232;-76
2023/05/27 10:52:12;;;;;;;8.73;5.57;;;;;;;19.53;83.65;95198.53;5029916;28;20234;-74
2023/05/27 10:54:37;;;;;;;10.03;5.70;;;;;;;19.48;83.39;95190.50;5016708;28;20229;-75
2023/05/27 10:57:03;;;;;;;9.27;5.70;;;;;;;19.43;84.02;95198.41;5015197;28;20284;-76
2023/05/27 10:59:38;;;;;;;8.03;5.87;;;;;;;19.40;85.54;95197.06;5029379;28;20794;-77
2023/05/27 11:02:04;;;;;;;10.17;6.20;;;;;;;19.43;88.35;95191.25;5024433;28;20251;-76
2023/05/27 11:04:34;;;;;;;8.53;6.10;;;;;;;19.45;88.53;95191.81;5031120;28;20226;-77
2023/05/27 11:07:00;;;;;;;9.50;6.07;;;;;;;19.50;87.71;95188.41;5014828;28;20257;-76
2023/05/27 11:09:26;;;;;;;8.07;5.87;;;;;;;19.49;85.93;95186.78;5030321;28;20272;-76
2023/05/27 11:11:55;;;;;;;7.03;5.60;;;;;;;19.50;86.26;95185.75;5011456;28;20299;-77
2023/05/27 11:14:21;;;;;;;9.83;5.70;;;;;;;19.48;84.87;95191.31;5011228;28;20226;-75
2023/05/27 11:16:51;;;;;;;9.43;5.67;;;;;;;19.48;83.97;95180.69;5032659;28;20236;-75
2023/05/27 11:19:17;;;;;;;9.17;5.17;;;;;;;19.61;82.56;95181.38;5032383;28;20286;-75
2023/05/27 11:21:46;;;;;;;7.77;5.10;;;;;;;19.75;82.91;95180.72;5014100;28;20304;-76